sensor_id;sensor_type;location;lat;lon;timestamp;pressure;altitude;pressure_sealevel;temperature;humidity
75298;BME280;63896;45.990;18.688;2024-03-02T00:02:12;100029.59;;;8.02;100.00
75298;BME280;63896;45.990;18.688;2024-03-02T00:05:22;100026.13;;;8.02;100.00
75298;BME280;63896;45.990;18.688;2024-03-02T00:08:25;100027.75;;;8.09;100.00
75298;BME280;63896;45.990;18.688;2024-03-02T00:11:28;100029.97;;;8.12;100.00
75298;BME280;63896;45.990;18.688;2024-03-02T00:14:31;100029.97;;;8.12;100.00
75298;BME280;63896;45.990;18.688;2024-03-02T00:17:34;100014.97;;;8.06;100.00
75298;BME280;63896;45.990;18.688;2024-03-02T00:20:37;100013.50;;;8.04;100.00
75298;BME280;63896;45.990;18.688;2024-03-02T00:23:40;100012.94;;;8.02;100.00
75298;BME280;63896;45.990;18.688;2024-03-02T00:26:45;99999.91;;;8.00;100.00
75298;BME280;63896;45.990;18.688;2024-03-02T00:29:48;99998.50;;;7.98;100.00
75298;BME280;63896;45.990;18.688;2024-03-02T00:32:50;99994.84;;;7.92;100.00
75298;BME280;63896;45.990;18.688;2024-03-02T00:35:56;99990.59;;;7.91;100.00
75298;BME280;63896;45.990;18.688;2024-03-02T00:38:59;99994.03;;;7.92;100.00
75298;BME280;63896;45.990;18.688;2024-03-02T00:42:02;100003.81;;;7.91;100.00
75298;BME280;63896;45.990;18.688;2024-03-02T00:45:07;99999.31;;;7.92;100.00
75298;BME280;63896;45.990;18.688;2024-03-02T00:48:10;99999.53;;;7.90;100.00
75298;BME280;63896;45.990;18.688;2024-03-02T00:51:13;99991.81;;;7.95;100.00
75298;BME280;63896;45.990;18.688;2024-03-02T00:54:19;99992.59;;;8.02;100.00
75298;BME280;63896;45.990;18.688;2024-03-02T00:57:23;99987.09;;;8.04;100.00
75298;BME280;63896;45.990;18.688;2024-03-02T01:00:28;99996.84;;;8.10;100.00
75298;BME280;63896;45.990;18.688;2024-03-02T01:03:31;99995.81;;;8.18;100.00
75298;BME280;63896;45.990;18.688;2024-03-02T01:06:35;100002.13;;;8.17;100.00
75298;BME280;63896;45.990;18.688;2024-03-02T01:09:38;99999.47;;;8.17;100.00
75298;BME280;63896;45.990;18.688;2024-03-02T01:12:41;100000.06;;;8.25;100.00
75298;BME280;63896;45.990;18.688;2024-03-02T01:15:44;100000.47;;;8.22;100.00
75298;BME280;63896;45.990;18.688;2024-03-02T01:18:47;100002.13;;;8.17;100.00
75298;BME280;63896;45.990;18.688;2024-03-02T01:21:50;99998.47;;;8.11;100.00
75298;BME280;63896;45.990;18.688;2024-03-02T01:24:53;100002.94;;;8.10;100.00
75298;BME280;63896;45.990;18.688;2024-03-02T01:27:56;100010.22;;;8.15;100.00
75298;BME280;63896;45.990;18.688;2024-03-02T01:30:59;100002.72;;;8.12;100.00
75298;BME280;63896;45.990;18.688;2024-03-02T01:34:02;100004.97;;;8.08;100.00
75298;BME280;63896;45.990;18.688;2024-03-02T01:37:05;100016.97;;;8.04;100.00
75298;BME280;63896;45.990;18.688;2024-03-02T01:40:09;100014.13;;;8.12;100.00
75298;BME280;63896;45.990;18.688;2024-03-02T01:43:12;100010.06;;;8.03;100.00
75298;BME280;63896;45.990;18.688;2024-03-02T01:46:15;100011.72;;;7.98;100.00
75298;BME280;63896;45.990;18.688;2024-03-02T01:49:18;100003.00;;;7.91;100.00
75298;BME280;63896;45.990;18.688;2024-03-02T01:52:21;100008.28;;;7.91;100.00
75298;BME280;63896;45.990;18.688;2024-03-02T01:55:24;100011.13;;;7.89;100.00
75298;BME280;63896;45.990;18.688;2024-03-02T01:58:27;100010.53;;;7.87;100.00
75298;BME280;63896;45.990;18.688;2024-03-02T02:01:30;100006.25;;;7.86;100.00
75298;BME280;63896;45.990;18.688;2024-03-02T02:04:33;100000.97;;;7.86;100.00
75298;BME280;63896;45.990;18.688;2024-03-02T02:07:36;100013.56;;;7.84;100.00
75298;BME280;63896;45.990;18.688;2024-03-02T02:10:39;100005.03;;;7.82;100.00
75298;BME280;63896;45.990;18.688;2024-03-02T02:13:42;100012.75;;;7.84;100.00
75298;BME280;63896;45.990;18.688;2024-03-02T02:16:45;100010.72;;;7.86;100.00
75298;BME280;63896;45.990;18.688;2024-03-02T02:19:48;100013.56;;;7.91;100.00
75298;BME280;63896;45.990;18.688;2024-03-02T02:23:01;100012.94;;;7.95;100.00
75298;BME280;63896;45.990;18.688;2024-03-02T02:26:05;100008.84;;;7.99;100.00
75298;BME280;63896;45.990;18.688;2024-03-02T02:29:08;100002.97;;;7.97;100.00
75298;BME280;63896;45.990;18.688;2024-03-02T02:32:10;100004.81;;;7.90;100.00
75298;BME280;63896;45.990;18.688;2024-03-02T02:35:13;100015.38;;;7.90;100.00
75298;BME280;63896;45.990;18.688;2024-03-02T02:38:16;100010.69;;;7.92;100.00
75298;BME280;63896;45.990;18.688;2024-03-02T02:41:19;100004.81;;;7.90;100.00
75298;BME280;63896;45.990;18.688;2024-03-02T02:44:21;100004.00;;;7.90;100.00
75298;BME280;63896;45.990;18.688;2024-03-02T02:47:25;100004.59;;;7.92;100.00
75298;BME280;63896;45.990;18.688;2024-03-02T02:50:28;99992.63;;;7.89;100.00
75298;BME280;63896;45.990;18.688;2024-03-02T02:53:31;99989.97;;;7.89;100.00
75298;BME280;63896;45.990;18.688;2024-03-02T02:56:34;99992.81;;;7.94;100.00
75298;BME280;63896;45.990;18.688;2024-03-02T02:59:36;99993.03;;;7.93;100.00
75298;BME280;63896;45.990;18.688;2024-03-02T03:02:43;99994.88;;;7.86;100.00
75298;BME280;63896;45.990;18.688;2024-03-02T03:05:46;99990.00;;;7.83;100.00
75298;BME280;63896;45.990;18.688;2024-03-02T03:08:49;99984.53;;;7.78;100.00
75298;BME280;63896;45.990;18.688;2024-03-02T03:11:51;99993.06;;;7.80;100.00
75298;BME280;63896;45.990;18.688;2024-03-02T03:14:55;99988.16;;;7.77;100.00
75298;BME280;63896;45.990;18.688;2024-03-02T03:17:57;99987.19;;;7.71;100.00
75298;BME280;63896;45.990;18.688;2024-03-02T03:21:00;99988.78;;;7.65;100.00
75298;BME280;63896;45.990;18.688;2024-03-02T03:24:03;99986.97;;;7.66;100.00
75298;BME280;63896;45.990;18.688;2024-03-02T03:27:06;99983.72;;;7.71;100.00
75298;BME280;63896;45.990;18.688;2024-03-02T03:30:09;99981.50;;;7.68;100.00
75298;BME280;63896;45.990;18.688;2024-03-02T03:33:12;99983.53;;;7.65;100.00
75298;BME280;63896;45.990;18.688;2024-03-02T03:36:16;99985.53;;;7.70;100.00
75298;BME280;63896;45.990;18.688;2024-03-02T03:39:18;99992.06;;;7.68;100.00
75298;BME280;63896;45.990;18.688;2024-03-02T03:42:21;99994.06;;;7.65;100.00
75298;BME280;63896;45.990;18.688;2024-03-02T03:45:24;99995.91;;;7.72;100.00
75298;BME280;63896;45.990;18.688;2024-03-02T03:48:28;99993.69;;;7.75;100.00
75298;BME280;63896;45.990;18.688;2024-03-02T03:51:33;99995.91;;;7.78;100.00
75298;BME280;63896;45.990;18.688;2024-03-02T03:54:36;99992.84;;;7.75;100.00
75298;BME280;63896;45.990;18.688;2024-03-02T03:57:43;100001.78;;;7.74;100.00
75298;BME280;63896;45.990;18.688;2024-03-02T04:00:46;100013.16;;;7.74;100.00
75298;BME280;63896;45.990;18.688;2024-03-02T04:03:49;100013.34;;;7.73;100.00
75298;BME280;63896;45.990;18.688;2024-03-02T04:06:52;100013.78;;;7.76;100.00
75298;BME280;63896;45.990;18.688;2024-03-02T04:09:55;100010.53;;;7.74;100.00
75298;BME280;63896;45.990;18.688;2024-03-02T04:12:58;100015.38;;;7.77;100.00
75298;BME280;63896;45.990;18.688;2024-03-02T04:16:00;99997.53;;;7.79;100.00
75298;BME280;63896;45.990;18.688;2024-03-02T04:19:03;100006.47;;;7.78;100.00
75298;BME280;63896;45.990;18.688;2024-03-02T04:22:06;100014.78;;;7.68;100.00
75298;BME280;63896;45.990;18.688;2024-03-02T04:25:22;100011.53;;;7.73;100.00
75298;BME280;63896;45.990;18.688;2024-03-02T04:28:25;100016.44;;;7.76;100.00
75298;BME280;63896;45.990;18.688;2024-03-02T04:31:28;100010.53;;;7.74;100.00
75298;BME280;63896;45.990;18.688;2024-03-02T04:34:31;100017.63;;;7.74;100.00
75298;BME280;63896;45.990;18.688;2024-03-02T04:37:34;100016.41;;;7.70;100.00
75298;BME280;63896;45.990;18.688;2024-03-02T04:40:37;100007.69;;;7.69;100.00
75298;BME280;63896;45.990;18.688;2024-03-02T04:43:40;100016.00;;;7.66;100.00
75298;BME280;63896;45.990;18.688;2024-03-02T04:46:42;100019.88;;;7.63;100.00
75298;BME280;63896;45.990;18.688;2024-03-02T04:49:45;100019.09;;;7.56;100.00
75298;BME280;63896;45.990;18.688;2024-03-02T04:52:48;100024.56;;;7.55;100.00
75298;BME280;63896;45.990;18.688;2024-03-02T04:55:51;100037.56;;;7.56;100.00
75298;BME280;63896;45.990;18.688;2024-03-02T04:59:26;100036.75;;;7.56;100.00
75298;BME280;63896;45.990;18.688;2024-03-02T05:02:29;100033.88;;;7.57;100.00
75298;BME280;63896;45.990;18.688;2024-03-02T05:05:31;100035.13;;;7.68;100.00
75298;BME280;63896;45.990;18.688;2024-03-02T05:08:34;100036.94;;;7.68;100.00
75298;BME280;63896;45.990;18.688;2024-03-02T05:11:37;100042.63;;;7.71;100.00
75298;BME280;63896;45.990;18.688;2024-03-02T05:14:39;100030.63;;;7.68;100.00
75298;BME280;63896;45.990;18.688;2024-03-02T05:17:42;100045.47;;;7.70;100.00
75298;BME280;63896;45.990;18.688;2024-03-02T05:20:45;100036.75;;;7.76;100.00
75298;BME280;63896;45.990;18.688;2024-03-02T05:23:48;100041.59;;;7.79;100.00
75298;BME280;63896;45.990;18.688;2024-03-02T05:26:51;100039.97;;;7.84;100.00
75298;BME280;63896;45.990;18.688;2024-03-02T05:29:56;100042.41;;;7.79;100.00
75298;BME280;63896;45.990;18.688;2024-03-02T05:33:00;100040.78;;;7.78;100.00
75298;BME280;63896;45.990;18.688;2024-03-02T05:36:04;100053.38;;;7.70;100.00
75298;BME280;63896;45.990;18.688;2024-03-02T05:39:07;100055.22;;;7.62;100.00
75298;BME280;63896;45.990;18.688;2024-03-02T05:42:12;100060.72;;;7.68;100.00
75298;BME280;63896;45.990;18.688;2024-03-02T05:45:15;100060.28;;;7.71;100.00
75298;BME280;63896;45.990;18.688;2024-03-02T05:48:19;100058.47;;;7.78;100.00
75298;BME280;63896;45.990;18.688;2024-03-02T05:51:22;100056.84;;;7.70;100.00
75298;BME280;63896;45.990;18.688;2024-03-02T05:54:24;100055.63;;;7.86;100.00
75298;BME280;63896;45.990;18.688;2024-03-02T05:57:27;100057.66;;;7.84;100.00
75298;BME280;63896;45.990;18.688;2024-03-02T06:00:41;100064.78;;;7.83;100.00
75298;BME280;63896;45.990;18.688;2024-03-02T06:03:45;100075.94;;;7.85;100.00
75298;BME280;63896;45.990;18.688;2024-03-02T06:06:47;100075.09;;;7.85;100.00
75298;BME280;63896;45.990;18.688;2024-03-02T06:09:52;100078.34;;;7.80;100.00
75298;BME280;63896;45.990;18.688;2024-03-02T06:12:55;100086.50;;;7.85;100.00
75298;BME280;63896;45.990;18.688;2024-03-02T06:15:58;100091.56;;;7.80;100.00
75298;BME280;63896;45.990;18.688;2024-03-02T06:19:01;100089.75;;;7.87;100.00
75298;BME280;63896;45.990;18.688;2024-03-02T06:22:04;100089.34;;;7.97;100.00
75298;BME280;63896;45.990;18.688;2024-03-02T06:25:08;100100.09;;;7.89;100.00
75298;BME280;63896;45.990;18.688;2024-03-02T06:28:11;100103.75;;;7.88;100.00
75298;BME280;63896;45.990;18.688;2024-03-02T06:31:13;100102.13;;;7.93;100.00
75298;BME280;63896;45.990;18.688;2024-03-02T06:34:16;100107.41;;;7.93;100.00
75298;BME280;63896;45.990;18.688;2024-03-02T06:37:19;100111.69;;;8.01;100.00
75298;BME280;63896;45.990;18.688;2024-03-02T06:40:22;100112.09;;;8.04;100.00
75298;BME280;63896;45.990;18.688;2024-03-02T06:43:25;100116.75;;;7.89;100.00
75298;BME280;63896;45.990;18.688;2024-03-02T06:46:28;100118.59;;;8.02;100.00
75298;BME280;63896;45.990;18.688;2024-03-02T06:49:30;100118.75;;;8.27;100.00
75298;BME280;63896;45.990;18.688;2024-03-02T06:52:33;100121.06;;;8.30;100.00
75298;BME280;63896;45.990;18.688;2024-03-02T06:55:36;100121.41;;;8.20;100.00
75298;BME280;63896;45.990;18.688;2024-03-02T06:58:38;100121.44;;;8.13;100.00
75298;BME280;63896;45.990;18.688;2024-03-02T07:01:41;100123.66;;;8.17;100.00
75298;BME280;63896;45.990;18.688;2024-03-02T07:04:45;100131.59;;;8.17;100.00
75298;BME280;63896;45.990;18.688;2024-03-02T07:07:48;100140.75;;;8.21;100.00
75298;BME280;63896;45.990;18.688;2024-03-02T07:10:51;100140.94;;;8.19;100.00
75298;BME280;63896;45.990;18.688;2024-03-02T07:13:53;100145.63;;;8.17;100.00
75298;BME280;63896;45.990;18.688;2024-03-02T07:16:56;100141.97;;;8.31;100.00
75298;BME280;63896;45.990;18.688;2024-03-02T07:19:59;100146.22;;;8.39;100.00
75298;BME280;63896;45.990;18.688;2024-03-02T07:23:02;100145.22;;;8.40;100.00
75298;BME280;63896;45.990;18.688;2024-03-02T07:26:05;100139.72;;;8.35;100.00
75298;BME280;63896;45.990;18.688;2024-03-02T07:29:11;100134.66;;;8.33;100.00
75298;BME280;63896;45.990;18.688;2024-03-02T07:32:14;100137.25;;;8.27;100.00
75298;BME280;63896;45.990;18.688;2024-03-02T07:35:17;100139.34;;;8.38;100.00
75298;BME280;63896;45.990;18.688;2024-03-02T07:38:21;100141.53;;;8.28;100.00
75298;BME280;63896;45.990;18.688;2024-03-02T07:41:24;100153.16;;;8.40;100.00
75298;BME280;63896;45.990;18.688;2024-03-02T07:44:27;100150.28;;;8.28;100.00
75298;BME280;63896;45.990;18.688;2024-03-02T07:47:30;100152.34;;;8.33;100.00
75298;BME280;63896;45.990;18.688;2024-03-02T07:50:33;100154.59;;;8.29;100.00
75298;BME280;63896;45.990;18.688;2024-03-02T07:53:37;100148.25;;;8.24;100.00
75298;BME280;63896;45.990;18.688;2024-03-02T07:56:40;100152.34;;;8.26;100.00
75298;BME280;63896;45.990;18.688;2024-03-02T07:59:43;100148.69;;;8.34;100.00
75298;BME280;63896;45.990;18.688;2024-03-02T08:02:46;100152.56;;;8.38;100.00
75298;BME280;63896;45.990;18.688;2024-03-02T08:05:48;100141.34;;;8.36;100.00
75298;BME280;63896;45.990;18.688;2024-03-02T08:08:51;100148.88;;;8.12;100.00
75298;BME280;63896;45.990;18.688;2024-03-02T08:11:54;100150.47;;;8.27;100.00
75298;BME280;63896;45.990;18.688;2024-03-02T08:14:57;100155.78;;;8.13;100.00
75298;BME280;63896;45.990;18.688;2024-03-02T08:18:00;100151.91;;;8.16;100.00
75298;BME280;63896;45.990;18.688;2024-03-02T08:21:03;100153.75;;;8.35;100.00
75298;BME280;63896;45.990;18.688;2024-03-02T08:24:06;100150.28;;;8.54;100.00
75298;BME280;63896;45.990;18.688;2024-03-02T08:27:09;100143.13;;;8.61;100.00
75298;BME280;63896;45.990;18.688;2024-03-02T08:30:12;100153.72;;;8.68;100.00
75298;BME280;63896;45.990;18.688;2024-03-02T08:33:15;100151.00;;;8.81;100.00
75298;BME280;63896;45.990;18.688;2024-03-02T08:36:18;100154.84;;;8.98;100.00
75298;BME280;63896;45.990;18.688;2024-03-02T08:39:22;100160.69;;;9.14;100.00
75298;BME280;63896;45.990;18.688;2024-03-02T08:42:25;100164.50;;;9.24;100.00
75298;BME280;63896;45.990;18.688;2024-03-02T08:45:28;100168.56;;;9.27;100.00
75298;BME280;63896;45.990;18.688;2024-03-02T08:48:31;100173.28;;;9.18;100.00
75298;BME280;63896;45.990;18.688;2024-03-02T08:51:34;100177.69;;;9.37;100.00
75298;BME280;63896;45.990;18.688;2024-03-02T08:54:36;100172.34;;;9.44;100.00
75298;BME280;63896;45.990;18.688;2024-03-02T08:57:43;100182.31;;;9.80;100.00
75298;BME280;63896;45.990;18.688;2024-03-02T09:00:46;100175.00;;;10.07;100.00
75298;BME280;63896;45.990;18.688;2024-03-02T09:03:50;100176.75;;;10.19;100.00
75298;BME280;63896;45.990;18.688;2024-03-02T09:06:53;100176.00;;;10.37;100.00
75298;BME280;63896;45.990;18.688;2024-03-02T09:09:55;100182.22;;;10.49;100.00
75298;BME280;63896;45.990;18.688;2024-03-02T09:12:59;100183.94;;;10.80;100.00
75298;BME280;63896;45.990;18.688;2024-03-02T09:16:03;100175.16;;;11.16;100.00
75298;BME280;63896;45.990;18.688;2024-03-02T09:19:06;100186.94;;;11.38;100.00
75298;BME280;63896;45.990;18.688;2024-03-02T09:22:10;100182.91;;;11.47;100.00
75298;BME280;63896;45.990;18.688;2024-03-02T09:25:12;100188.06;;;11.60;100.00
75298;BME280;63896;45.990;18.688;2024-03-02T09:28:16;100187.94;;;11.85;100.00
75298;BME280;63896;45.990;18.688;2024-03-02T09:31:18;100178.09;;;11.74;100.00
75298;BME280;63896;45.990;18.688;2024-03-02T09:34:22;100183.66;;;11.84;100.00
75298;BME280;63896;45.990;18.688;2024-03-02T09:37:25;100178.53;;;12.24;100.00
75298;BME280;63896;45.990;18.688;2024-03-02T09:40:29;100189.94;;;12.13;100.00
75298;BME280;63896;45.990;18.688;2024-03-02T09:43:32;100182.72;;;12.43;100.00
75298;BME280;63896;45.990;18.688;2024-03-02T09:46:35;100185.59;;;12.53;100.00
75298;BME280;63896;45.990;18.688;2024-03-02T09:49:39;100185.47;;;12.71;100.00
75298;BME280;63896;45.990;18.688;2024-03-02T09:52:42;100183.84;;;12.94;100.00
75298;BME280;63896;45.990;18.688;2024-03-02T09:55:46;100186.72;;;13.15;100.00
75298;BME280;63896;45.990;18.688;2024-03-02T09:58:49;100194.50;;;12.94;100.00
75298;BME280;63896;45.990;18.688;2024-03-02T10:01:59;100196.22;;;12.88;100.00
75298;BME280;63896;45.990;18.688;2024-03-02T10:05:03;100192.03;;;13.04;100.00
75298;BME280;63896;45.990;18.688;2024-03-02T10:08:06;100198.22;;;12.81;100.00
75298;BME280;63896;45.990;18.688;2024-03-02T10:11:09;100197.97;;;12.59;100.00
75298;BME280;63896;45.990;18.688;2024-03-02T10:14:13;100200.53;;;12.66;100.00
75298;BME280;63896;45.990;18.688;2024-03-02T10:17:17;100197.97;;;12.48;100.00
75298;BME280;63896;45.990;18.688;2024-03-02T10:20:24;100194.28;;;12.37;100.00
75298;BME280;63896;45.990;18.688;2024-03-02T10:23:27;100197.19;;;12.47;100.00
75298;BME280;63896;45.990;18.688;2024-03-02T10:26:30;100199.72;;;12.65;100.00
75298;BME280;63896;45.990;18.688;2024-03-02T10:29:33;100193.22;;;12.73;100.00
75298;BME280;63896;45.990;18.688;2024-03-02T10:32:36;100200.19;;;12.85;100.00
75298;BME280;63896;45.990;18.688;2024-03-02T10:35:40;100195.41;;;12.99;100.00
75298;BME280;63896;45.990;18.688;2024-03-02T10:38:44;100196.38;;;13.33;100.00
75298;BME280;63896;45.990;18.688;2024-03-02T10:41:49;100207.00;;;13.16;100.00
75298;BME280;63896;45.990;18.688;2024-03-02T10:44:54;100201.25;;;13.64;100.00
75298;BME280;63896;45.990;18.688;2024-03-02T10:47:58;100197.91;;;13.29;100.00
75298;BME280;63896;45.990;18.688;2024-03-02T10:51:03;100198.31;;;13.94;100.00
75298;BME280;63896;45.990;18.688;2024-03-02T10:54:07;100199.78;;;14.02;100.00
75298;BME280;63896;45.990;18.688;2024-03-02T10:57:11;100197.69;;;14.04;100.00
75298;BME280;63896;45.990;18.688;2024-03-02T11:00:15;100201.91;;;13.71;100.00
75298;BME280;63896;45.990;18.688;2024-03-02T11:03:18;100190.50;;;14.04;100.00
75298;BME280;63896;45.990;18.688;2024-03-02T11:06:22;100192.56;;;14.47;100.00
75298;BME280;63896;45.990;18.688;2024-03-02T11:09:27;100190.81;;;14.74;100.00
75298;BME280;63896;45.990;18.688;2024-03-02T11:16:18;100187.44;;;14.12;100.00
75298;BME280;63896;45.990;18.688;2024-03-02T11:19:25;100183.56;;;14.53;100.00
75298;BME280;63896;45.990;18.688;2024-03-02T11:22:28;100184.28;;;15.74;100.00
75298;BME280;63896;45.990;18.688;2024-03-02T11:25:32;100168.03;;;18.39;91.39
75298;BME280;63896;45.990;18.688;2024-03-02T11:28:35;100165.63;;;18.28;88.22
75298;BME280;63896;45.990;18.688;2024-03-02T11:31:58;100165.25;;;16.76;100.00
75298;BME280;63896;45.990;18.688;2024-03-02T11:35:03;100164.25;;;16.08;100.00
75298;BME280;63896;45.990;18.688;2024-03-02T11:38:06;100164.97;;;16.73;100.00
75298;BME280;63896;45.990;18.688;2024-03-02T11:41:09;100161.69;;;19.15;86.42
75298;BME280;63896;45.990;18.688;2024-03-02T11:44:14;100160.41;;;21.48;65.21
75298;BME280;63896;45.990;18.688;2024-03-02T11:47:17;100164.81;;;22.13;61.48
75298;BME280;63896;45.990;18.688;2024-03-02T11:50:39;100159.47;;;20.43;72.70
75298;BME280;63896;45.990;18.688;2024-03-02T11:53:44;100161.16;;;21.72;64.63
75298;BME280;63896;45.990;18.688;2024-03-02T11:56:48;100154.94;;;23.95;52.60
75298;BME280;63896;45.990;18.688;2024-03-02T11:59:51;100156.44;;;22.15;54.61
75298;BME280;63896;45.990;18.688;2024-03-02T12:03:01;100153.78;;;22.42;60.19
75298;BME280;63896;45.990;18.688;2024-03-02T12:06:04;100154.94;;;22.22;55.82
75298;BME280;63896;45.990;18.688;2024-03-02T12:09:09;100154.81;;;22.46;55.79
75298;BME280;63896;45.990;18.688;2024-03-02T12:12:14;100147.06;;;22.86;51.81
75298;BME280;63896;45.990;18.688;2024-03-02T12:15:27;100143.22;;;22.13;54.75
75298;BME280;63896;45.990;18.688;2024-03-02T12:18:30;100148.16;;;18.55;71.32
75298;BME280;63896;45.990;18.688;2024-03-02T12:21:33;100148.84;;;17.25;88.56
75298;BME280;63896;45.990;18.688;2024-03-02T12:24:36;100146.13;;;17.09;99.04
75298;BME280;63896;45.990;18.688;2024-03-02T12:27:40;100149.72;;;15.67;100.00
75298;BME280;63896;45.990;18.688;2024-03-02T12:30:43;100145.59;;;15.11;100.00
75298;BME280;63896;45.990;18.688;2024-03-02T12:33:46;100150.81;;;15.01;100.00
75298;BME280;63896;45.990;18.688;2024-03-02T12:36:49;100143.16;;;14.66;100.00
75298;BME280;63896;45.990;18.688;2024-03-02T12:39:55;100146.28;;;15.23;100.00
75298;BME280;63896;45.990;18.688;2024-03-02T12:42:58;100152.50;;;15.29;100.00
75298;BME280;63896;45.990;18.688;2024-03-02T12:46:01;100145.84;;;14.50;100.00
75298;BME280;63896;45.990;18.688;2024-03-02T12:49:08;100147.19;;;14.91;100.00
75298;BME280;63896;45.990;18.688;2024-03-02T12:52:13;100136.44;;;16.98;97.48
75298;BME280;63896;45.990;18.688;2024-03-02T12:55:16;100136.28;;;17.35;96.07
75298;BME280;63896;45.990;18.688;2024-03-02T12:58:22;100136.16;;;20.00;72.37
75298;BME280;63896;45.990;18.688;2024-03-02T13:01:25;100137.06;;;20.96;63.13
75298;BME280;63896;45.990;18.688;2024-03-02T13:04:29;100130.44;;;21.49;58.91
75298;BME280;63896;45.990;18.688;2024-03-02T13:07:33;100137.63;;;18.79;71.35
75298;BME280;63896;45.990;18.688;2024-03-02T13:10:37;100136.91;;;17.83;84.80
75298;BME280;63896;45.990;18.688;2024-03-02T13:13:40;100125.91;;;21.02;63.91
75298;BME280;63896;45.990;18.688;2024-03-02T13:16:44;100130.72;;;22.77;54.14
75298;BME280;63896;45.990;18.688;2024-03-02T13:19:53;100133.56;;;22.53;56.55
75298;BME280;63896;45.990;18.688;2024-03-02T13:22:56;100137.41;;;23.07;52.40
75298;BME280;63896;45.990;18.688;2024-03-02T13:25:59;100121.75;;;24.82;48.16
75298;BME280;63896;45.990;18.688;2024-03-02T13:29:02;100128.75;;;25.39;45.03
75298;BME280;63896;45.990;18.688;2024-03-02T13:32:05;100124.13;;;24.35;46.98
75298;BME280;63896;45.990;18.688;2024-03-02T13:35:08;100121.94;;;24.85;46.49
75298;BME280;63896;45.990;18.688;2024-03-02T13:38:13;100128.78;;;23.90;48.25
75298;BME280;63896;45.990;18.688;2024-03-02T13:41:16;100127.63;;;24.36;46.17
75298;BME280;63896;45.990;18.688;2024-03-02T13:44:19;100125.22;;;21.71;50.02
75298;BME280;63896;45.990;18.688;2024-03-02T13:47:22;100132.59;;;20.62;55.53
75298;BME280;63896;45.990;18.688;2024-03-02T13:50:25;100124.34;;;21.95;52.79
75298;BME280;63896;45.990;18.688;2024-03-02T13:53:28;100128.31;;;22.75;48.19
75298;BME280;63896;45.990;18.688;2024-03-02T13:56:31;100121.13;;;20.75;54.96
75298;BME280;63896;45.990;18.688;2024-03-02T13:59:35;100124.84;;;22.56;49.56
75298;BME280;63896;45.990;18.688;2024-03-02T14:02:39;100116.28;;;22.08;50.34
75298;BME280;63896;45.990;18.688;2024-03-02T14:05:43;100126.06;;;23.90;46.41
75298;BME280;63896;45.990;18.688;2024-03-02T14:08:46;100125.09;;;23.01;47.93
75298;BME280;63896;45.990;18.688;2024-03-02T14:11:51;100126.06;;;22.50;48.13
75298;BME280;63896;45.990;18.688;2024-03-02T14:14:54;100122.22;;;22.70;48.30
75298;BME280;63896;45.990;18.688;2024-03-02T14:18:00;100116.31;;;23.67;45.30
75298;BME280;63896;45.990;18.688;2024-03-02T14:21:03;100118.91;;;22.73;48.47
75298;BME280;63896;45.990;18.688;2024-03-02T14:24:07;100113.41;;;23.27;46.58
75298;BME280;63896;45.990;18.688;2024-03-02T14:27:09;100114.72;;;22.35;48.79
75298;BME280;63896;45.990;18.688;2024-03-02T14:30:29;100108.16;;;22.54;47.56
75298;BME280;63896;45.990;18.688;2024-03-02T14:33:32;100110.56;;;21.96;47.65
75298;BME280;63896;45.990;18.688;2024-03-02T14:36:35;100101.69;;;21.91;48.76
75298;BME280;63896;45.990;18.688;2024-03-02T14:39:38;100102.00;;;22.21;47.62
75298;BME280;63896;45.990;18.688;2024-03-02T14:42:42;100101.31;;;22.29;47.31
75298;BME280;63896;45.990;18.688;2024-03-02T14:45:46;100096.91;;;22.61;46.73
75298;BME280;63896;45.990;18.688;2024-03-02T14:48:49;100099.44;;;22.85;45.97
75298;BME280;63896;45.990;18.688;2024-03-02T14:51:52;100099.75;;;21.03;50.05
75298;BME280;63896;45.990;18.688;2024-03-02T14:54:55;100099.47;;;22.11;48.43
75298;BME280;63896;45.990;18.688;2024-03-02T14:57:58;100093.47;;;21.63;49.52
75298;BME280;63896;45.990;18.688;2024-03-02T15:01:01;100102.13;;;20.38;52.46
75298;BME280;63896;45.990;18.688;2024-03-02T15:04:04;100095.47;;;21.20;50.94
75298;BME280;63896;45.990;18.688;2024-03-02T15:07:08;100103.63;;;19.91;55.34
75298;BME280;63896;45.990;18.688;2024-03-02T15:10:11;100107.53;;;19.75;55.78
75298;BME280;63896;45.990;18.688;2024-03-02T15:13:14;100108.63;;;18.71;58.41
75298;BME280;63896;45.990;18.688;2024-03-02T15:16:17;100106.25;;;17.33;67.40
75298;BME280;63896;45.990;18.688;2024-03-02T15:19:19;100104.88;;;17.31;71.05
75298;BME280;63896;45.990;18.688;2024-03-02T15:22:22;100105.69;;;16.17;86.71
75298;BME280;63896;45.990;18.688;2024-03-02T15:25:25;100114.22;;;15.77;92.71
75298;BME280;63896;45.990;18.688;2024-03-02T15:28:28;100109.19;;;15.54;97.65
75298;BME280;63896;45.990;18.688;2024-03-02T15:31:31;100110.78;;;15.06;100.00
75298;BME280;63896;45.990;18.688;2024-03-02T15:34:34;100114.78;;;15.04;100.00
75298;BME280;63896;45.990;18.688;2024-03-02T15:37:36;100114.78;;;15.04;100.00
75298;BME280;63896;45.990;18.688;2024-03-02T15:40:39;100112.03;;;14.99;100.00
75298;BME280;63896;45.990;18.688;2024-03-02T15:43:42;100118.28;;;14.83;100.00
75298;BME280;63896;45.990;18.688;2024-03-02T15:46:45;100122.66;;;14.72;100.00
75298;BME280;63896;45.990;18.688;2024-03-02T15:49:48;100122.03;;;14.65;100.00